Time;durP1;ratioP1;P1;durP2;ratioP2;P2;SDS_P1;SDS_P2;PMS_P1;PMS_P2;Temp;Humidity;BMP_temperature;BMP_pressure;BME280_temperature;BME280_humidity;BME280_pressure;Samples;Min_cycle;Max_cycle;Signal;HPM_P1;HPM_P2
2021/06/13 00:01:52;;;;;;;4.67;4.07;;;20.30;55.60;;;;;;5023041;28;20628;-50
2021/06/13 00:04:19;;;;;;;6.67;4.73;;;20.30;56.20;;;;;;5026058;28;20669;-49
2021/06/13 00:06:46;;;;;;;5.63;5.13;;;20.20;56.00;;;;;;5028425;28;20965;-50
2021/06/13 00:09:13;;;;;;;9.10;5.27;;;20.20;56.20;;;;;;5025015;28;20696;-49
2021/06/13 00:11:39;;;;;;;6.97;5.40;;;20.10;56.30;;;;;;5023158;28;20620;-53
2021/06/13 00:14:08;;;;;;;4.97;4.47;;;20.10;56.30;;;;;;5030144;28;20634;-49
2021/06/13 00:16:35;;;;;;;5.50;4.60;;;20.20;56.20;;;;;;5030193;28;20655;-49
2021/06/13 00:19:01;;;;;;;5.63;4.00;;;20.20;56.00;;;;;;5029953;28;20684;-49
2021/06/13 00:21:28;;;;;;;6.13;4.40;;;20.20;55.90;;;;;;5030290;28;21005;-49
2021/06/13 00:23:55;;;;;;;5.30;4.80;;;20.20;55.80;;;;;;5029801;28;20683;-51
2021/06/13 00:26:21;;;;;;;5.67;5.17;;;20.30;55.90;;;;;;5029299;28;20658;-51
2021/06/13 00:28:48;;;;;;;4.70;3.83;;;20.20;55.70;;;;;;5029421;28;20728;-51
2021/06/13 00:31:16;;;;;;;6.67;4.77;;;20.20;55.80;;;;;;5030979;28;20631;-52
2021/06/13 00:33:43;;;;;;;5.63;4.57;;;20.20;55.80;;;;;;5031293;28;20627;-51
2021/06/13 00:36:10;;;;;;;4.90;4.33;;;20.10;55.70;;;;;;5031011;28;20659;-51
2021/06/13 00:38:37;;;;;;;4.63;4.23;;;20.10;55.90;;;;;;5031105;28;20669;-51
2021/06/13 00:41:03;;;;;;;5.03;4.47;;;20.00;56.00;;;;;;5031645;28;20638;-51
2021/06/13 00:43:30;;;;;;;6.03;3.43;;;20.10;56.10;;;;;;5031017;28;20663;-49
2021/06/13 00:45:57;;;;;;;6.33;5.03;;;20.00;56.10;;;;;;5030886;28;20692;-50
2021/06/13 00:48:25;;;;;;;5.70;3.93;;;20.00;56.30;;;;;;5030611;28;20631;-52
2021/06/13 00:50:53;;;;;;;5.97;5.40;;;20.00;56.40;;;;;;5030968;28;20676;-51
2021/06/13 00:53:20;;;;;;;5.70;4.97;;;19.90;56.60;;;;;;5030889;28;20627;-51
2021/06/13 00:55:47;;;;;;;8.30;5.37;;;19.90;56.90;;;;;;5030573;28;20809;-51
2021/06/13 00:58:14;;;;;;;8.10;4.97;;;19.90;57.00;;;;;;5030398;28;21042;-51
2021/06/13 01:00:43;;;;;;;4.83;4.30;;;19.90;57.10;;;;;;5026298;28;20634;-52
2021/06/13 01:03:09;;;;;;;7.30;5.20;;;19.90;57.00;;;;;;5030607;28;20678;-51
2021/06/13 01:05:38;;;;;;;10.20;6.30;;;19.80;56.90;;;;;;5030298;28;21257;-51
2021/06/13 01:08:12;;;;;;;5.97;5.33;;;19.80;57.00;;;;;;5030530;28;20712;-51
2021/06/13 01:10:44;;;;;;;7.10;6.40;;;19.70;57.00;;;;;;5030172;28;20627;-51
2021/06/13 01:13:15;;;;;;;9.10;4.67;;;19.60;57.50;;;;;;5029115;28;20707;-51
2021/06/13 01:15:43;;;;;;;7.00;5.10;;;19.50;57.90;;;;;;5030025;28;20716;-51
2021/06/13 01:18:12;;;;;;;7.63;4.93;;;19.40;58.40;;;;;;5030047;28;20676;-51
2021/06/13 01:20:44;;;;;;;5.30;4.60;;;19.30;58.60;;;;;;5029132;28;20657;-51
2021/06/13 01:23:46;;;;;;;8.90;4.80;;;19.30;58.70;;;;;;5028956;28;21202;-50
2021/06/13 01:26:46;;;;;;;6.70;4.60;;;19.30;58.50;;;;;;5013228;28;20663;-51
2021/06/13 01:29:15;;;;;;;7.43;4.77;;;19.40;58.60;;;;;;5029684;28;20627;-51
2021/06/13 01:31:43;;;;;;;5.50;4.20;;;19.40;58.50;;;;;;5030091;28;20689;-51
2021/06/13 01:34:12;;;;;;;6.50;5.90;;;19.30;58.20;;;;;;5029897;28;20651;-51
2021/06/13 01:36:39;;;;;;;6.80;4.27;;;19.30;58.10;;;;;;5030320;28;20658;-51
2021/06/13 01:39:09;;;;;;;4.90;4.50;;;19.30;58.10;;;;;;5030073;28;21015;-51
2021/06/13 01:41:36;;;;;;;6.47;4.57;;;19.30;58.10;;;;;;5030429;28;21196;-51
2021/06/13 01:44:03;;;;;;;6.27;4.50;;;19.20;58.20;;;;;;5030015;28;20698;-50
2021/06/13 01:46:33;;;;;;;6.13;4.13;;;19.20;58.30;;;;;;5029828;28;20739;-50
2021/06/13 01:48:59;;;;;;;6.40;3.90;;;19.20;58.30;;;;;;5030308;28;20652;-50
2021/06/13 01:51:26;;;;;;;7.20;4.87;;;19.20;58.50;;;;;;5030357;28;20638;-50
2021/06/13 01:53:53;;;;;;;8.73;4.37;;;19.20;58.40;;;;;;5030092;28;20631;-51
2021/06/13 01:56:19;;;;;;;5.73;4.20;;;19.10;58.40;;;;;;5029364;28;20712;-50
2021/06/13 01:58:47;;;;;;;6.70;4.23;;;19.10;58.50;;;;;;5025567;28;21184;-50
2021/06/13 02:01:14;;;;;;;6.60;4.90;;;19.10;58.60;;;;;;5029485;28;20716;-50
2021/06/13 02:03:45;;;;;;;6.00;5.03;;;19.10;58.80;;;;;;5029315;28;20647;-50
2021/06/13 02:06:11;;;;;;;9.20;5.00;;;19.10;58.80;;;;;;5029541;28;20643;-50
2021/06/13 02:08:39;;;;;;;5.30;4.50;;;19.10;58.90;;;;;;5029542;28;21215;-50
2021/06/13 02:11:08;;;;;;;6.80;4.77;;;19.10;58.90;;;;;;5029833;28;20626;-51
2021/06/13 02:13:34;;;;;;;7.30;4.10;;;19.10;59.00;;;;;;5029436;28;20642;-50
2021/06/13 02:16:01;;;;;;;4.97;4.40;;;19.00;58.90;;;;;;5029975;28;20654;-50
2021/06/13 02:18:28;;;;;;;8.20;5.23;;;19.00;59.00;;;;;;5029214;28;20688;-50
2021/06/13 02:20:56;;;;;;;8.20;4.93;;;19.00;59.20;;;;;;5029920;28;20639;-50
2021/06/13 02:23:24;;;;;;;5.97;4.37;;;19.00;59.20;;;;;;5029569;28;21229;-50
2021/06/13 02:25:52;;;;;;;6.83;3.93;;;19.00;59.30;;;;;;5029698;28;20714;-50
2021/06/13 02:28:19;;;;;;;7.10;4.00;;;18.90;59.30;;;;;;5029750;28;20657;-50
2021/06/13 02:30:46;;;;;;;4.93;4.40;;;18.80;59.40;;;;;;5029992;28;20693;-51
2021/06/13 02:33:14;;;;;;;4.10;3.60;;;18.80;59.60;;;;;;5029683;28;20635;-50
2021/06/13 02:35:42;;;;;;;8.07;3.93;;;18.70;59.70;;;;;;5029349;28;20716;-50
2021/06/13 02:38:10;;;;;;;5.30;3.70;;;18.70;59.90;;;;;;5029597;28;20627;-50
2021/06/13 02:40:37;;;;;;;6.03;4.20;;;18.70;60.00;;;;;;5029408;28;20765;-50
2021/06/13 02:43:03;;;;;;;6.00;2.93;;;18.60;60.10;;;;;;5028317;28;20716;-50
2021/06/13 02:45:30;;;;;;;9.40;5.03;;;18.60;60.40;;;;;;5029385;28;20725;-50
2021/06/13 02:47:57;;;;;;;7.30;4.30;;;18.50;60.40;;;;;;5029632;28;20697;-50
2021/06/13 02:50:24;;;;;;;6.87;4.40;;;18.50;60.70;;;;;;5029543;28;20631;-49
2021/06/13 02:52:55;;;;;;;6.87;4.30;;;18.50;60.90;;;;;;5030013;28;20706;-49
2021/06/13 02:55:24;;;;;;;6.30;4.17;;;18.50;60.90;;;;;;5029648;28;20836;-49
2021/06/13 02:57:54;;;;;;;7.63;3.70;;;18.50;60.90;;;;;;5029458;28;20626;-48
2021/06/13 03:00:21;;;;;;;6.80;4.40;;;18.40;61.00;;;;;;5029576;28;21036;-49
2021/06/13 03:02:50;;;;;;;5.83;4.20;;;18.40;61.20;;;;;;5029195;28;20685;-50
2021/06/13 03:05:17;;;;;;;9.10;4.47;;;18.40;61.40;;;;;;5029502;28;20697;-52
2021/06/13 03:07:43;;;;;;;4.03;3.73;;;18.30;61.60;;;;;;5031391;28;21253;-51
2021/06/13 03:10:11;;;;;;;7.10;4.67;;;18.30;61.80;;;;;;5032881;28;20623;-51
2021/06/13 03:12:39;;;;;;;5.70;3.40;;;18.40;62.10;;;;;;5032833;28;20634;-49
2021/06/13 03:15:07;;;;;;;5.07;3.77;;;18.30;62.30;;;;;;5032403;28;20732;-50
2021/06/13 03:17:34;;;;;;;4.50;3.60;;;18.30;62.50;;;;;;5032907;28;20642;-51
2021/06/13 03:20:01;;;;;;;5.00;4.27;;;18.30;62.70;;;;;;5033709;28;20696;-51
2021/06/13 03:22:28;;;;;;;4.27;3.90;;;18.30;62.90;;;;;;5034129;28;20634;-50
2021/06/13 03:24:54;;;;;;;10.07;5.40;;;18.30;62.90;;;;;;5032312;28;20694;-51
2021/06/13 03:27:21;;;;;;;4.87;4.37;;;18.30;63.00;;;;;;5033116;28;20630;-51
2021/06/13 03:29:50;;;;;;;7.00;5.40;;;18.30;63.20;;;;;;5032851;28;20635;-51
2021/06/13 03:32:17;;;;;;;5.50;4.20;;;18.30;63.50;;;;;;5032762;28;20618;-51
2021/06/13 03:34:44;;;;;;;4.33;3.70;;;18.20;63.90;;;;;;5032647;28;20647;-51
2021/06/13 03:37:11;;;;;;;4.47;4.07;;;18.20;63.90;;;;;;5032434;28;20634;-52
2021/06/13 03:39:39;;;;;;;5.83;4.50;;;18.20;64.00;;;;;;5032807;28;20661;-51
2021/06/13 03:42:07;;;;;;;6.20;5.60;;;18.20;64.30;;;;;;5032125;28;21253;-51
2021/06/13 03:44:34;;;;;;;6.67;4.27;;;18.20;64.40;;;;;;5031973;28;20732;-49
2021/06/13 03:47:03;;;;;;;5.67;3.80;;;18.20;64.50;;;;;;5031883;28;20705;-49
2021/06/13 03:49:30;;;;;;;4.50;4.07;;;18.20;64.60;;;;;;5032874;28;21171;-49
2021/06/13 03:51:58;;;;;;;6.27;4.60;;;18.20;64.90;;;;;;5032140;28;20630;-51
2021/06/13 03:54:25;;;;;;;7.40;3.83;;;18.20;64.90;;;;;;5032098;28;20623;-51
2021/06/13 03:56:54;;;;;;;7.60;5.23;;;18.10;64.90;;;;;;5032000;28;20995;-51
2021/06/13 03:59:24;;;;;;;5.50;4.17;;;18.10;65.30;;;;;;5025918;28;20630;-51
2021/06/13 04:01:51;;;;;;;7.33;4.70;;;18.10;65.30;;;;;;5031958;28;20688;-50
2021/06/13 04:04:19;;;;;;;4.67;4.27;;;18.10;65.50;;;;;;5031715;28;21167;-50
2021/06/13 04:06:48;;;;;;;5.57;5.00;;;18.00;65.40;;;;;;5031599;28;21199;-50
2021/06/13 04:09:16;;;;;;;4.83;4.43;;;18.00;65.70;;;;;;5032045;28;20708;-50
2021/06/13 04:11:43;;;;;;;5.70;5.30;;;18.00;66.00;;;;;;5032026;28;20619;-50
2021/06/13 04:14:11;;;;;;;9.13;5.13;;;17.90;66.30;;;;;;5031919;28;20634;-50
2021/06/13 04:16:38;;;;;;;8.10;5.37;;;17.90;66.60;;;;;;5031590;28;20720;-50
2021/06/13 04:19:05;;;;;;;7.67;5.00;;;17.90;66.80;;;;;;5031454;28;20669;-51
2021/06/13 04:21:34;;;;;;;7.53;4.77;;;17.90;66.80;;;;;;5027609;28;21286;-51
2021/06/13 04:24:01;;;;;;;9.17;5.30;;;17.90;66.90;;;;;;5031615;28;20688;-51
2021/06/13 04:26:28;;;;;;;8.43;5.43;;;17.80;67.00;;;;;;5030984;28;20662;-51
2021/06/13 04:28:57;;;;;;;5.73;4.70;;;17.90;67.40;;;;;;5031485;28;20669;-51
2021/06/13 04:31:24;;;;;;;5.23;4.67;;;17.90;67.60;;;;;;5031173;28;20635;-51
2021/06/13 04:33:51;;;;;;;5.00;4.50;;;17.90;67.80;;;;;;5031616;28;20631;-51
2021/06/13 04:36:19;;;;;;;4.90;4.40;;;18.00;68.30;;;;;;5031232;28;20732;-51
2021/06/13 04:38:47;;;;;;;5.00;4.00;;;18.00;67.70;;;;;;5031534;28;20623;-50
2021/06/13 04:41:15;;;;;;;6.00;4.60;;;18.00;67.20;;;;;;5031687;28;20631;-50
2021/06/13 04:43:42;;;;;;;7.83;4.40;;;18.00;66.60;;;;;;5031131;28;20693;-50
2021/06/13 04:46:10;;;;;;;8.33;4.80;;;18.00;66.40;;;;;;5030881;28;20667;-50
2021/06/13 04:48:37;;;;;;;5.83;4.40;;;18.00;65.80;;;;;;5030594;28;20630;-50
2021/06/13 04:51:06;;;;;;;3.90;3.63;;;18.00;65.30;;;;;;5031624;28;20634;-50
2021/06/13 04:53:48;;;;;;;4.50;3.90;;;18.00;65.00;;;;;;5030509;28;20627;-50
2021/06/13 04:56:25;;;;;;;4.40;3.80;;;18.00;64.70;;;;;;5031039;28;21176;-51
2021/06/13 04:58:52;;;;;;;4.30;3.90;;;18.00;64.80;;;;;;5030142;28;20634;-51
2021/06/13 05:01:19;;;;;;;5.10;4.10;;;18.00;64.80;;;;;;5016436;28;20667;-51
2021/06/13 05:03:47;;;;;;;7.00;4.30;;;18.00;64.90;;;;;;5010995;28;21137;-50
2021/06/13 05:06:15;;;;;;;4.00;3.63;;;18.00;65.00;;;;;;5011168;28;20679;-50
2021/06/13 05:08:42;;;;;;;4.90;3.90;;;18.10;64.70;;;;;;5010828;28;20678;-50
2021/06/13 05:11:10;;;;;;;4.63;4.17;;;18.10;64.40;;;;;;5011147;28;20640;-50
2021/06/13 05:13:38;;;;;;;4.40;4.00;;;18.10;64.10;;;;;;5025721;28;20685;-49
2021/06/13 05:16:06;;;;;;;4.87;3.40;;;18.20;63.90;;;;;;5030938;28;21107;-50
2021/06/13 05:18:33;;;;;;;4.43;4.10;;;18.20;63.10;;;;;;5029685;28;20634;-50
2021/06/13 05:21:00;;;;;;;5.10;4.60;;;18.10;63.90;;;;;;5030238;28;20634;-50
2021/06/13 05:23:27;;;;;;;3.83;3.53;;;18.20;63.10;;;;;;5031196;28;20964;-49
2021/06/13 05:25:55;;;;;;;5.20;4.20;;;18.20;63.00;;;;;;5030249;28;20671;-50
2021/06/13 05:28:23;;;;;;;5.50;3.57;;;18.20;62.80;;;;;;5030114;28;20630;-50
2021/06/13 05:30:51;;;;;;;6.30;3.73;;;18.20;63.30;;;;;;5029348;28;20700;-49
2021/06/13 05:33:19;;;;;;;5.00;3.97;;;18.30;62.30;;;;;;5030459;28;20665;-50
2021/06/13 05:35:47;;;;;;;6.13;3.47;;;18.30;61.80;;;;;;5030454;28;21024;-50
2021/06/13 05:38:15;;;;;;;5.67;4.37;;;18.30;62.00;;;;;;5030071;28;20634;-51
2021/06/13 05:40:42;;;;;;;6.80;3.90;;;18.30;62.00;;;;;;5030418;28;20665;-50
2021/06/13 05:43:09;;;;;;;6.20;3.77;;;18.30;61.90;;;;;;5030443;28;20659;-50
2021/06/13 05:45:37;;;;;;;5.20;3.90;;;18.30;61.90;;;;;;5029699;28;20679;-50
2021/06/13 05:48:06;;;;;;;6.73;3.20;;;18.40;62.20;;;;;;5029642;28;20622;-51
2021/06/13 05:50:34;;;;;;;5.17;3.93;;;18.40;61.90;;;;;;5030606;28;21211;-50
2021/06/13 05:53:01;;;;;;;6.33;4.00;;;18.40;61.40;;;;;;5030157;28;20630;-50
2021/06/13 05:55:29;;;;;;;6.93;3.50;;;18.40;61.40;;;;;;5029868;28;20655;-52
2021/06/13 05:57:56;;;;;;;4.57;3.97;;;18.40;60.90;;;;;;5030504;28;20627;-50
2021/06/13 06:00:24;;;;;;;10.60;4.77;;;18.40;61.10;;;;;;5030230;28;20639;-50
2021/06/13 06:02:52;;;;;;;6.70;4.57;;;18.40;61.40;;;;;;5019987;28;20642;-50
2021/06/13 06:05:21;;;;;;;8.47;3.80;;;18.50;61.40;;;;;;5030124;28;21014;-51
2021/06/13 06:07:49;;;;;;;5.27;3.43;;;18.50;60.90;;;;;;5012665;28;21042;-51
2021/06/13 06:10:16;;;;;;;10.53;4.27;;;18.50;60.60;;;;;;5014491;28;20632;-51
2021/06/13 06:12:44;;;;;;;9.50;4.10;;;18.50;60.40;;;;;;5010469;28;20682;-51
2021/06/13 06:15:13;;;;;;;4.43;4.00;;;18.50;60.80;;;;;;5019992;28;21250;-50
2021/06/13 06:17:40;;;;;;;5.17;4.10;;;18.50;60.90;;;;;;5023933;28;20655;-50
2021/06/13 06:20:08;;;;;;;5.10;3.83;;;18.60;60.80;;;;;;5020813;28;20634;-50
2021/06/13 06:22:37;;;;;;;10.73;4.60;;;18.60;60.60;;;;;;5010228;28;20660;-51
2021/06/13 06:25:05;;;;;;;5.20;4.37;;;18.70;59.70;;;;;;5019040;28;20659;-51
2021/06/13 06:27:32;;;;;;;9.60;5.43;;;18.60;59.20;;;;;;5029728;28;20627;-51
2021/06/13 06:29:59;;;;;;;10.77;4.33;;;18.60;59.50;;;;;;5030196;28;20693;-51
2021/06/13 06:32:27;;;;;;;8.33;4.47;;;18.60;59.00;;;;;;5029750;28;20758;-50
2021/06/13 06:34:54;;;;;;;8.40;5.07;;;18.70;58.70;;;;;;5029738;28;20704;-51
2021/06/13 06:37:21;;;;;;;7.03;3.93;;;18.60;58.60;;;;;;5019317;28;20698;-51
2021/06/13 06:39:50;;;;;;;6.23;3.77;;;18.60;58.90;;;;;;5010234;28;20709;-50
2021/06/13 06:42:17;;;;;;;5.53;3.40;;;18.70;59.20;;;;;;5013447;28;20632;-50
2021/06/13 06:44:44;;;;;;;7.90;4.40;;;18.80;59.30;;;;;;5013419;28;21031;-50
2021/06/13 06:47:11;;;;;;;8.77;4.83;;;18.80;59.30;;;;;;5013440;28;20687;-50
2021/06/13 06:49:38;;;;;;;7.50;3.90;;;18.90;59.10;;;;;;5026511;28;20634;-51
2021/06/13 06:52:07;;;;;;;4.33;3.50;;;19.00;58.50;;;;;;5033450;28;20623;-50
2021/06/13 06:54:34;;;;;;;8.47;4.90;;;19.10;58.10;;;;;;5032901;28;20666;-50
2021/06/13 06:57:03;;;;;;;4.00;3.57;;;19.10;58.10;;;;;;5033173;28;20607;-49
2021/06/13 06:59:30;;;;;;;8.63;4.00;;;19.10;58.00;;;;;;5031265;28;20622;-50
2021/06/13 07:01:57;;;;;;;7.20;3.83;;;19.10;58.50;;;;;;5019334;28;20616;-50
2021/06/13 07:04:24;;;;;;;5.73;4.10;;;19.10;58.10;;;;;;5012912;28;20750;-50
2021/06/13 07:06:51;;;;;;;5.87;4.40;;;19.10;57.90;;;;;;5024050;28;20848;-50
2021/06/13 07:09:19;;;;;;;8.50;5.10;;;19.10;57.40;;;;;;5013178;28;20789;-51
2021/06/13 07:11:46;;;;;;;6.57;4.77;;;19.10;57.60;;;;;;5019321;28;20681;-50
2021/06/13 07:14:15;;;;;;;7.53;4.70;;;19.20;57.90;;;;;;5033169;28;20627;-49
2021/06/13 07:16:42;;;;;;;5.63;3.97;;;19.20;58.10;;;;;;5032233;28;21184;-50
2021/06/13 07:19:09;;;;;;;8.47;4.80;;;19.30;57.90;;;;;;5032008;28;20700;-50
2021/06/13 07:21:37;;;;;;;7.93;3.97;;;19.30;57.90;;;;;;5032339;28;20635;-50
2021/06/13 07:24:06;;;;;;;9.73;4.57;;;19.40;57.70;;;;;;5031236;28;20623;-47
2021/06/13 07:26:34;;;;;;;7.30;4.23;;;19.40;57.50;;;;;;5031691;28;20717;-47
2021/06/13 07:29:01;;;;;;;5.13;3.63;;;19.40;57.40;;;;;;5031842;28;21016;-48
2021/06/13 07:31:30;;;;;;;7.67;4.60;;;19.60;57.30;;;;;;5031778;28;20659;-48
2021/06/13 07:33:57;;;;;;;7.03;4.63;;;19.60;56.70;;;;;;5031601;28;20749;-48
2021/06/13 07:36:25;;;;;;;4.67;3.33;;;19.70;57.00;;;;;;5031892;28;20658;-49
2021/06/13 07:38:52;;;;;;;7.13;4.70;;;19.80;56.60;;;;;;5019717;28;20663;-48
2021/06/13 07:41:19;;;;;;;7.40;5.00;;;20.00;56.80;;;;;;5016581;28;21039;-49
2021/06/13 07:43:46;;;;;;;4.30;3.20;;;20.20;55.80;;;;;;5031448;28;20639;-49
2021/06/13 07:46:14;;;;;;;7.33;3.80;;;20.40;55.60;;;;;;5031050;28;20678;-49
2021/06/13 07:48:42;;;;;;;6.17;3.97;;;20.60;55.60;;;;;;5030662;28;20750;-48
2021/06/13 07:51:10;;;;;;;8.07;4.17;;;20.80;55.30;;;;;;5026513;28;21167;-48
2021/06/13 07:53:43;;;;;;;6.47;4.43;;;21.10;54.20;;;;;;5030537;28;20626;-49
2021/06/13 07:56:11;;;;;;;5.37;3.70;;;21.20;52.90;;;;;;5030936;28;20663;-48
2021/06/13 07:58:38;;;;;;;5.90;4.50;;;21.10;52.60;;;;;;5031350;28;20626;-49
2021/06/13 08:01:05;;;;;;;4.70;4.23;;;20.90;53.00;;;;;;5031032;28;21257;-49
2021/06/13 08:03:33;;;;;;;7.60;4.17;;;20.80;53.00;;;;;;5031334;28;21202;-48
2021/06/13 08:06:01;;;;;;;5.53;3.47;;;20.70;52.30;;;;;;5030888;28;20667;-49
2021/06/13 08:08:28;;;;;;;5.83;4.10;;;20.80;52.70;;;;;;5025323;28;20941;-48
2021/06/13 08:10:56;;;;;;;8.10;3.50;;;21.00;51.90;;;;;;5031204;28;21050;-48
2021/06/13 08:13:23;;;;;;;4.50;3.80;;;21.10;51.90;;;;;;5031117;28;20679;-49
2021/06/13 08:15:52;;;;;;;6.47;3.63;;;21.30;51.80;;;;;;5030996;28;21019;-48
2021/06/13 08:18:19;;;;;;;4.60;3.60;;;21.50;51.50;;;;;;5030591;28;21226;-48
2021/06/13 08:20:47;;;;;;;11.87;4.73;;;21.60;50.60;;;;;;5020583;28;20659;-47
2021/06/13 08:23:15;;;;;;;8.63;3.80;;;21.60;50.00;;;;;;5011757;28;20979;-48
2021/06/13 08:25:43;;;;;;;4.67;4.13;;;21.60;49.90;;;;;;5030314;28;20654;-49
2021/06/13 08:28:10;;;;;;;4.93;4.40;;;21.70;50.30;;;;;;5029476;28;20713;-49
2021/06/13 08:30:37;;;;;;;7.50;3.47;;;21.90;50.20;;;;;;5023277;28;20639;-49
2021/06/13 08:33:04;;;;;;;5.30;3.47;;;22.10;50.00;;;;;;5011518;28;20632;-49
2021/06/13 08:35:32;;;;;;;7.37;5.07;;;22.20;49.90;;;;;;5016486;28;20643;-49
2021/06/13 08:38:02;;;;;;;4.33;3.17;;;22.40;49.60;;;;;;5030187;28;21177;-49
2021/06/13 08:40:32;;;;;;;5.60;3.17;;;22.40;49.50;;;;;;5030612;28;20623;-49
2021/06/13 08:42:59;;;;;;;5.87;3.77;;;22.40;49.20;;;;;;5030273;28;20720;-48
2021/06/13 08:47:55;;;;;;;4.93;3.50;;;22.20;48.80;;;;;;5030610;28;20683;-53
2021/06/13 08:50:22;;;;;;;4.10;3.70;;;22.10;48.30;;;;;;5034885;28;21175;-53
2021/06/13 08:52:50;;;;;;;6.03;4.23;;;21.90;48.60;;;;;;5031461;28;20977;-52
2021/06/13 08:55:17;;;;;;;6.23;4.30;;;21.90;49.00;;;;;;5032452;28;20659;-53
2021/06/13 08:57:46;;;;;;;6.23;3.40;;;21.90;49.20;;;;;;5029746;28;20643;-53
2021/06/13 09:00:15;;;;;;;8.10;4.00;;;21.80;49.10;;;;;;5016916;28;20622;-54
2021/06/13 09:02:45;;;;;;;6.17;3.33;;;21.80;49.40;;;;;;5030503;28;20669;-53
2021/06/13 09:05:13;;;;;;;5.77;4.13;;;21.80;49.80;;;;;;5050762;28;21260;-53
2021/06/13 09:07:47;;;;;;;4.20;3.83;;;21.70;50.30;;;;;;5035050;28;21226;-52
2021/06/13 09:10:18;;;;;;;8.00;4.03;;;21.70;49.30;;;;;;5030600;28;20626;-53
2021/06/13 09:12:50;;;;;;;7.30;3.33;;;21.50;48.90;;;;;;5032552;28;20645;-53
2021/06/13 09:15:20;;;;;;;5.63;4.23;;;21.40;48.90;;;;;;5022056;28;20628;-53
2021/06/13 09:17:47;;;;;;;5.40;3.67;;;21.40;49.40;;;;;;5024400;28;20624;-52
2021/06/13 09:20:19;;;;;;;9.47;4.27;;;21.50;48.70;;;;;;5011930;28;20639;-51
2021/06/13 09:23:06;;;;;;;4.77;2.83;;;21.70;48.40;;;;;;5012141;28;21038;-51
2021/06/13 09:25:34;;;;;;;6.60;5.00;;;22.10;47.80;;;;;;5009181;28;20660;-53
2021/06/13 09:28:08;;;;;;;5.60;3.60;;;22.50;46.60;;;;;;5009424;28;20645;-52
2021/06/13 09:30:36;;;;;;;4.70;4.07;;;22.90;46.30;;;;;;5017498;28;20639;-54
2021/06/13 09:33:10;;;;;;;4.13;3.70;;;23.20;46.30;;;;;;5048245;28;21027;-52
2021/06/13 09:35:37;;;;;;;6.80;3.90;;;23.50;45.10;;;;;;5022211;28;20628;-52
2021/06/13 09:38:16;;;;;;;6.53;3.93;;;23.90;44.50;;;;;;5011109;28;20631;-52
2021/06/13 09:40:48;;;;;;;9.93;4.87;;;24.10;43.60;;;;;;5011969;28;20697;-54
2021/06/13 09:43:20;;;;;;;6.47;3.17;;;24.10;43.20;;;;;;5011500;28;20624;-55
2021/06/13 09:45:56;;;;;;;6.10;3.97;;;24.00;41.70;;;;;;5011291;28;20688;-54
2021/06/13 09:48:23;;;;;;;7.70;4.37;;;23.70;42.60;;;;;;5011009;28;20660;-53
2021/06/13 09:50:52;;;;;;;9.43;4.17;;;23.40;43.30;;;;;;5010628;28;20635;-55
2021/06/13 09:53:24;;;;;;;5.60;3.87;;;23.10;43.20;;;;;;5030853;28;20626;-55
2021/06/13 09:56:05;;;;;;;5.10;3.90;;;22.70;43.40;;;;;;5031216;28;20754;-56
2021/06/13 09:58:34;;;;;;;7.80;3.70;;;22.40;44.00;;;;;;5031478;28;20623;-55
2021/06/13 10:01:08;;;;;;;6.80;3.00;;;22.20;44.20;;;;;;5030277;28;21175;-53
2021/06/13 10:03:37;;;;;;;6.30;3.93;;;22.10;44.80;;;;;;5025787;28;20685;-53
2021/06/13 10:06:05;;;;;;;7.73;3.80;;;22.10;44.60;;;;;;5030067;28;20646;-58
2021/06/13 10:08:32;;;;;;;5.20;4.13;;;22.10;45.00;;;;;;5031029;28;20655;-54
2021/06/13 10:10:59;;;;;;;5.63;3.57;;;22.10;45.80;;;;;;5031576;28;21014;-56
2021/06/13 10:13:45;;;;;;;4.07;3.77;;;22.10;43.70;;;;;;5031470;28;20681;-57
2021/06/13 10:16:22;;;;;;;4.20;3.37;;;22.10;44.60;;;;;;5032416;28;20667;-55
2021/06/13 10:18:57;;;;;;;7.50;4.87;;;22.00;43.70;;;;;;5033585;28;20704;-57
2021/06/13 10:21:26;;;;;;;4.20;3.40;;;22.10;44.40;;;;;;5032301;28;20630;-57
2021/06/13 10:23:54;;;;;;;6.57;4.10;;;22.10;44.20;;;;;;5034692;28;20681;-57
2021/06/13 10:26:21;;;;;;;7.73;4.10;;;22.10;44.40;;;;;;5034630;28;21218;-55
2021/06/13 10:28:50;;;;;;;3.60;3.07;;;22.20;44.10;;;;;;5044251;28;20846;-54
2021/06/13 10:31:18;;;;;;;4.90;3.67;;;22.20;43.90;;;;;;5036639;28;20634;-53
2021/06/13 10:33:45;;;;;;;3.10;2.80;;;22.10;44.50;;;;;;5034415;28;20635;-53
2021/06/13 10:36:13;;;;;;;4.70;3.03;;;22.10;44.40;;;;;;5034659;28;20720;-54
2021/06/13 10:38:40;;;;;;;6.80;4.17;;;22.20;44.60;;;;;;5034792;28;20689;-54
2021/06/13 10:41:07;;;;;;;4.57;4.00;;;22.20;44.10;;;;;;5032818;28;20668;-54
2021/06/13 10:43:37;;;;;;;5.83;3.60;;;22.10;44.30;;;;;;5033384;28;20633;-54
2021/06/13 10:46:11;;;;;;;5.63;3.87;;;22.10;44.00;;;;;;5033908;28;20713;-55
2021/06/13 10:48:40;;;;;;;6.10;3.67;;;22.20;43.90;;;;;;5035170;28;20717;-54
2021/06/13 10:51:47;;;;;;;4.43;3.40;;;22.20;42.70;;;;;;5033522;28;20619;-56
2021/06/13 10:54:24;;;;;;;7.13;3.53;;;22.20;42.60;;;;;;5024587;28;20635;-53
2021/06/13 10:56:52;;;;;;;7.57;4.17;;;22.10;43.00;;;;;;5037779;28;20653;-54
2021/06/13 10:59:20;;;;;;;6.23;3.70;;;22.10;42.90;;;;;;5034861;28;20688;-58
2021/06/13 11:02:03;;;;;;;3.50;2.83;;;22.10;42.20;;;;;;5034866;28;21021;-57
2021/06/13 11:04:47;;;;;;;7.43;3.53;;;22.00;42.70;;;;;;5034495;28;20633;-54
2021/06/13 11:07:48;;;;;;;5.37;3.53;;;22.20;42.80;;;;;;5033872;28;20663;-58
2021/06/13 11:10:16;;;;;;;7.13;4.33;;;22.20;43.20;;;;;;5033833;28;20630;-56
2021/06/13 11:12:47;;;;;;;3.40;3.10;;;22.30;43.50;;;;;;5034110;28;20622;-58
2021/06/13 11:15:16;;;;;;;5.90;3.20;;;22.40;43.30;;;;;;5032638;28;21214;-54
2021/06/13 11:17:55;;;;;;;5.03;3.63;;;22.50;42.60;;;;;;5026551;28;20659;-54
2021/06/13 11:20:47;;;;;;;5.43;3.30;;;22.50;41.90;;;;;;5032415;28;20611;-54
2021/06/13 11:23:16;;;;;;;4.27;3.00;;;22.60;42.20;;;;;;5034934;28;20643;-54
2021/06/13 11:25:44;;;;;;;5.00;3.70;;;22.50;41.90;;;;;;5016566;28;20701;-54
2021/06/13 11:28:13;;;;;;;7.00;4.00;;;22.60;42.80;;;;;;5023963;28;20712;-54
2021/06/13 11:30:42;;;;;;;6.23;3.73;;;22.60;42.70;;;;;;5033613;28;20630;-53
2021/06/13 11:33:13;;;;;;;4.73;3.80;;;22.60;43.00;;;;;;5031168;28;20702;-53
2021/06/13 11:35:44;;;;;;;6.50;3.80;;;22.70;42.30;;;;;;5033326;28;20645;-53
2021/06/13 11:38:29;;;;;;;5.67;3.30;;;22.80;42.70;;;;;;5031789;28;20623;-53
2021/06/13 11:44:47;;;;;;;8.00;3.47;;;23.20;42.40;;;;;;5023660;28;20618;-52
2021/06/13 11:47:27;;;;;;;4.77;3.93;;;23.40;42.30;;;;;;5031691;28;20654;-51
2021/06/13 11:49:56;;;;;;;5.33;3.80;;;23.30;41.80;;;;;;5041987;28;20634;-51
2021/06/13 11:52:34;;;;;;;5.03;4.00;;;23.20;41.60;;;;;;5032884;28;21378;-52
2021/06/13 11:55:04;;;;;;;3.93;3.10;;;23.20;40.90;;;;;;5032850;28;20884;-53
2021/06/13 11:57:32;;;;;;;8.10;4.53;;;23.30;41.40;;;;;;5032680;28;20658;-54
2021/06/13 12:00:13;;;;;;;6.80;3.57;;;23.30;41.70;;;;;;5032755;28;20631;-51
2021/06/13 12:02:40;;;;;;;5.40;4.00;;;23.40;41.70;;;;;;5032934;28;20692;-51
2021/06/13 12:05:10;;;;;;;6.27;3.57;;;23.40;41.40;;;;;;5033214;28;20688;-51
2021/06/13 12:07:38;;;;;;;4.70;3.33;;;23.40;40.50;;;;;;5032749;28;20659;-52
2021/06/13 12:10:19;;;;;;;5.30;3.47;;;23.20;41.00;;;;;;5033063;28;20680;-53
2021/06/13 12:12:47;;;;;;;7.30;3.77;;;23.20;42.10;;;;;;5032802;28;20615;-51
2021/06/13 12:15:16;;;;;;;4.33;3.40;;;23.30;41.60;;;;;;5032837;28;20653;-51
2021/06/13 12:17:44;;;;;;;4.53;3.87;;;23.30;40.90;;;;;;5044647;28;20654;-54
2021/06/13 12:20:19;;;;;;;6.87;3.60;;;23.40;41.40;;;;;;5052546;28;20630;-54
2021/06/13 12:22:52;;;;;;;6.07;3.80;;;23.40;41.40;;;;;;5050849;28;20749;-54
2021/06/13 12:28:06;;;;;;;4.87;3.40;;;23.60;41.20;;;;;;5031428;28;20665;-53
2021/06/13 12:30:34;;;;;;;7.63;3.10;;;23.50;41.10;;;;;;5031785;28;20730;-55
2021/06/13 12:33:02;;;;;;;4.33;3.33;;;23.50;40.70;;;;;;5032481;28;20634;-55
2021/06/13 12:35:32;;;;;;;3.70;2.70;;;23.40;40.40;;;;;;5032226;28;20634;-55
2021/06/13 12:38:02;;;;;;;5.50;3.80;;;23.50;42.00;;;;;;5032151;28;20771;-52
2021/06/13 12:40:31;;;;;;;5.53;3.07;;;23.50;41.20;;;;;;5031993;28;20681;-57
2021/06/13 12:42:58;;;;;;;5.03;3.80;;;23.60;40.90;;;;;;5032505;28;21186;-56
2021/06/13 12:45:25;;;;;;;3.87;3.00;;;23.60;39.60;;;;;;5040305;28;21165;-59
2021/06/13 12:47:57;;;;;;;5.80;3.47;;;23.60;39.20;;;;;;5052079;28;21163;-56
2021/06/13 12:50:26;;;;;;;4.40;4.00;;;23.70;39.50;;;;;;5050483;28;20990;-58
2021/06/13 12:52:56;;;;;;;4.43;3.00;;;23.80;40.00;;;;;;5039223;28;20623;-61
2021/06/13 12:55:23;;;;;;;3.17;2.87;;;23.90;40.10;;;;;;5031718;28;20706;-56
2021/06/13 12:57:52;;;;;;;6.93;3.67;;;23.90;39.90;;;;;;5031572;28;21040;-57
2021/06/13 13:00:19;;;;;;;8.10;4.13;;;24.00;39.70;;;;;;5032148;28;20623;-58
2021/06/13 13:02:46;;;;;;;4.27;3.87;;;24.10;39.70;;;;;;5025300;28;20627;-58
2021/06/13 13:05:14;;;;;;;4.90;4.13;;;24.10;39.20;;;;;;5031851;28;20631;-57